Alpine, Colorado
Current Conditions -  °F | °C
As of 2:50 AM on Monday 22 Dec 2014 (Local Time) from KRCV Reporting Station
Broken Clouds Broken Clouds  
Wind Chill: 28°   Ceiling: 10000
Heat Index: 37°   Visibility: 10mi
Dew Point: 25°   Wind: 17mph
Humidity: 62%   Direction: 250°WSW
Pressure: 29.76"   Gusts: 28mph
Location:  37.6617°N, 106.617°W
Report Text: KRCV 220950Z AUTO 25015G24KT 10SM SCT055 BKN100 03/M04 A2976 RMK AO2 T00301037
Loading
Personal Weather Stations






























Interactive Weather Map New forecast layout! Learn more

10-Day Weather Forecast

Advertisements
Track Severe Weather on mobile